sensor_id;sensor_type;location;lat;lon;timestamp;P1;durP1;ratioP1;P2;durP2;ratioP2
70312;SDS011;57723;51.698;5.344;2023-11-22T00:02:18;4.03;;;1.85;;
70312;SDS011;57723;51.698;5.344;2023-11-22T00:04:43;6.65;;;2.25;;
70312;SDS011;57723;51.698;5.344;2023-11-22T00:07:09;4.57;;;1.97;;
70312;SDS011;57723;51.698;5.344;2023-11-22T00:09:34;4.10;;;2.17;;
70312;SDS011;57723;51.698;5.344;2023-11-22T00:12:00;3.83;;;1.60;;
70312;SDS011;57723;51.698;5.344;2023-11-22T00:14:25;5.17;;;2.20;;
70312;SDS011;57723;51.698;5.344;2023-11-22T00:16:51;4.43;;;1.77;;
70312;SDS011;57723;51.698;5.344;2023-11-22T00:19:16;4.37;;;2.10;;
70312;SDS011;57723;51.698;5.344;2023-11-22T00:21:43;4.65;;;1.98;;
70312;SDS011;57723;51.698;5.344;2023-11-22T00:24:08;3.43;;;1.70;;
70312;SDS011;57723;51.698;5.344;2023-11-22T00:26:36;5.00;;;1.87;;
70312;SDS011;57723;51.698;5.344;2023-11-22T00:29:02;3.40;;;1.67;;
70312;SDS011;57723;51.698;5.344;2023-11-22T00:31:27;4.03;;;1.95;;
70312;SDS011;57723;51.698;5.344;2023-11-22T00:33:52;3.10;;;1.80;;
70312;SDS011;57723;51.698;5.344;2023-11-22T00:36:18;3.60;;;1.90;;
70312;SDS011;57723;51.698;5.344;2023-11-22T00:38:45;4.30;;;1.97;;
70312;SDS011;57723;51.698;5.344;2023-11-22T00:41:11;3.45;;;2.00;;
70312;SDS011;57723;51.698;5.344;2023-11-22T00:43:36;3.30;;;1.83;;
70312;SDS011;57723;51.698;5.344;2023-11-22T00:46:02;4.27;;;2.07;;
70312;SDS011;57723;51.698;5.344;2023-11-22T00:48:27;3.33;;;1.70;;
70312;SDS011;57723;51.698;5.344;2023-11-22T00:50:53;3.55;;;1.80;;
70312;SDS011;57723;51.698;5.344;2023-11-22T00:53:18;3.50;;;1.92;;
70312;SDS011;57723;51.698;5.344;2023-11-22T00:55:43;4.90;;;1.70;;
70312;SDS011;57723;51.698;5.344;2023-11-22T00:58:08;4.50;;;2.00;;
70312;SDS011;57723;51.698;5.344;2023-11-22T01:00:34;4.87;;;1.90;;
70312;SDS011;57723;51.698;5.344;2023-11-22T01:02:59;4.70;;;1.90;;
70312;SDS011;57723;51.698;5.344;2023-11-22T01:05:24;3.93;;;1.67;;
70312;SDS011;57723;51.698;5.344;2023-11-22T01:07:50;4.30;;;1.83;;
70312;SDS011;57723;51.698;5.344;2023-11-22T01:10:15;3.38;;;1.80;;
70312;SDS011;57723;51.698;5.344;2023-11-22T01:12:41;2.70;;;1.70;;
70312;SDS011;57723;51.698;5.344;2023-11-22T01:15:07;3.60;;;2.00;;
70312;SDS011;57723;51.698;5.344;2023-11-22T01:17:32;3.60;;;1.90;;
70312;SDS011;57723;51.698;5.344;2023-11-22T01:19:59;3.10;;;1.70;;
70312;SDS011;57723;51.698;5.344;2023-11-22T01:22:24;3.10;;;1.60;;
70312;SDS011;57723;51.698;5.344;2023-11-22T01:24:50;3.57;;;1.90;;
70312;SDS011;57723;51.698;5.344;2023-11-22T01:27:15;4.03;;;2.10;;
70312;SDS011;57723;51.698;5.344;2023-11-22T01:29:40;3.53;;;1.73;;
70312;SDS011;57723;51.698;5.344;2023-11-22T01:32:07;3.75;;;1.80;;
70312;SDS011;57723;51.698;5.344;2023-11-22T01:34:32;3.67;;;2.08;;
70312;SDS011;57723;51.698;5.344;2023-11-22T01:36:57;3.27;;;1.80;;
70312;SDS011;57723;51.698;5.344;2023-11-22T01:39:23;2.90;;;1.60;;
70312;SDS011;57723;51.698;5.344;2023-11-22T01:41:48;3.57;;;1.97;;
70312;SDS011;57723;51.698;5.344;2023-11-22T01:44:14;2.60;;;1.65;;
70312;SDS011;57723;51.698;5.344;2023-11-22T01:46:40;3.13;;;1.83;;
70312;SDS011;57723;51.698;5.344;2023-11-22T01:49:09;3.55;;;1.75;;
70312;SDS011;57723;51.698;5.344;2023-11-22T01:51:38;3.33;;;1.80;;
70312;SDS011;57723;51.698;5.344;2023-11-22T01:54:04;3.05;;;1.63;;
70312;SDS011;57723;51.698;5.344;2023-11-22T01:56:31;4.38;;;1.88;;
70312;SDS011;57723;51.698;5.344;2023-11-22T01:58:58;2.80;;;1.70;;
70312;SDS011;57723;51.698;5.344;2023-11-22T02:01:26;3.08;;;1.70;;
70312;SDS011;57723;51.698;5.344;2023-11-22T02:03:51;3.58;;;1.85;;
70312;SDS011;57723;51.698;5.344;2023-11-22T02:06:21;4.00;;;1.70;;
70312;SDS011;57723;51.698;5.344;2023-11-22T02:08:47;3.42;;;1.80;;
70312;SDS011;57723;51.698;5.344;2023-11-22T02:11:12;4.63;;;1.80;;
70312;SDS011;57723;51.698;5.344;2023-11-22T02:13:37;3.47;;;1.80;;
70312;SDS011;57723;51.698;5.344;2023-11-22T02:16:03;2.90;;;1.80;;
70312;SDS011;57723;51.698;5.344;2023-11-22T02:18:28;3.13;;;1.97;;
70312;SDS011;57723;51.698;5.344;2023-11-22T02:20:54;3.30;;;1.80;;
70312;SDS011;57723;51.698;5.344;2023-11-22T02:23:19;2.37;;;1.40;;
70312;SDS011;57723;51.698;5.344;2023-11-22T02:25:44;3.20;;;1.80;;
70312;SDS011;57723;51.698;5.344;2023-11-22T02:28:12;3.13;;;1.70;;
70312;SDS011;57723;51.698;5.344;2023-11-22T02:30:38;3.30;;;1.83;;
70312;SDS011;57723;51.698;5.344;2023-11-22T02:33:04;3.93;;;1.90;;
70312;SDS011;57723;51.698;5.344;2023-11-22T02:35:35;2.90;;;1.63;;
70312;SDS011;57723;51.698;5.344;2023-11-22T02:38:00;5.90;;;1.80;;
70312;SDS011;57723;51.698;5.344;2023-11-22T02:40:25;3.08;;;1.90;;
70312;SDS011;57723;51.698;5.344;2023-11-22T02:42:51;3.00;;;1.65;;
70312;SDS011;57723;51.698;5.344;2023-11-22T02:45:17;3.33;;;1.70;;
70312;SDS011;57723;51.698;5.344;2023-11-22T02:47:48;2.60;;;1.55;;
70312;SDS011;57723;51.698;5.344;2023-11-22T02:50:14;3.10;;;1.60;;
70312;SDS011;57723;51.698;5.344;2023-11-22T02:52:40;2.77;;;1.70;;
70312;SDS011;57723;51.698;5.344;2023-11-22T02:55:06;2.92;;;1.60;;
70312;SDS011;57723;51.698;5.344;2023-11-22T02:57:35;2.95;;;1.90;;
70312;SDS011;57723;51.698;5.344;2023-11-22T03:00:01;3.03;;;1.77;;
70312;SDS011;57723;51.698;5.344;2023-11-22T03:02:29;3.75;;;2.00;;
70312;SDS011;57723;51.698;5.344;2023-11-22T03:04:54;3.22;;;1.63;;
70312;SDS011;57723;51.698;5.344;2023-11-22T03:07:19;4.35;;;1.70;;
70312;SDS011;57723;51.698;5.344;2023-11-22T03:09:47;5.50;;;1.73;;
70312;SDS011;57723;51.698;5.344;2023-11-22T03:12:13;4.10;;;1.97;;
70312;SDS011;57723;51.698;5.344;2023-11-22T03:14:39;2.65;;;1.50;;
70312;SDS011;57723;51.698;5.344;2023-11-22T03:17:08;3.05;;;1.70;;
70312;SDS011;57723;51.698;5.344;2023-11-22T03:19:34;2.80;;;1.57;;
70312;SDS011;57723;51.698;5.344;2023-11-22T03:21:59;3.20;;;1.50;;
70312;SDS011;57723;51.698;5.344;2023-11-22T03:24:25;2.78;;;1.45;;
70312;SDS011;57723;51.698;5.344;2023-11-22T03:26:50;3.00;;;1.60;;
70312;SDS011;57723;51.698;5.344;2023-11-22T03:29:15;3.57;;;1.60;;
70312;SDS011;57723;51.698;5.344;2023-11-22T03:31:44;3.40;;;1.70;;
70312;SDS011;57723;51.698;5.344;2023-11-22T03:34:09;4.27;;;1.83;;
70312;SDS011;57723;51.698;5.344;2023-11-22T03:36:35;4.77;;;1.60;;
70312;SDS011;57723;51.698;5.344;2023-11-22T03:39:00;3.63;;;1.87;;
70312;SDS011;57723;51.698;5.344;2023-11-22T03:41:25;3.20;;;1.60;;
70312;SDS011;57723;51.698;5.344;2023-11-22T03:43:51;4.15;;;1.70;;
70312;SDS011;57723;51.698;5.344;2023-11-22T03:46:16;3.07;;;1.57;;
70312;SDS011;57723;51.698;5.344;2023-11-22T03:48:41;3.93;;;1.40;;
70312;SDS011;57723;51.698;5.344;2023-11-22T03:51:08;2.47;;;1.58;;
70312;SDS011;57723;51.698;5.344;2023-11-22T03:53:33;3.30;;;1.60;;
70312;SDS011;57723;51.698;5.344;2023-11-22T03:55:58;4.03;;;1.90;;
70312;SDS011;57723;51.698;5.344;2023-11-22T03:58:23;3.20;;;1.70;;
70312;SDS011;57723;51.698;5.344;2023-11-22T04:00:49;3.13;;;2.03;;
70312;SDS011;57723;51.698;5.344;2023-11-22T04:03:17;2.97;;;1.65;;
70312;SDS011;57723;51.698;5.344;2023-11-22T04:05:43;3.90;;;1.80;;
70312;SDS011;57723;51.698;5.344;2023-11-22T04:08:09;3.33;;;1.87;;
70312;SDS011;57723;51.698;5.344;2023-11-22T04:10:34;3.70;;;1.70;;
70312;SDS011;57723;51.698;5.344;2023-11-22T04:13:00;6.32;;;1.58;;
70312;SDS011;57723;51.698;5.344;2023-11-22T04:15:25;2.97;;;1.50;;
70312;SDS011;57723;51.698;5.344;2023-11-22T04:17:52;3.40;;;1.52;;
70312;SDS011;57723;51.698;5.344;2023-11-22T04:20:19;3.42;;;1.70;;
70312;SDS011;57723;51.698;5.344;2023-11-22T04:22:44;4.67;;;1.53;;
70312;SDS011;57723;51.698;5.344;2023-11-22T04:25:10;2.47;;;1.73;;
70312;SDS011;57723;51.698;5.344;2023-11-22T04:27:38;3.38;;;1.83;;
70312;SDS011;57723;51.698;5.344;2023-11-22T04:30:05;2.53;;;1.50;;
70312;SDS011;57723;51.698;5.344;2023-11-22T04:32:31;3.03;;;1.50;;
70312;SDS011;57723;51.698;5.344;2023-11-22T04:34:57;3.05;;;1.73;;
70312;SDS011;57723;51.698;5.344;2023-11-22T04:37:23;4.00;;;1.98;;
70312;SDS011;57723;51.698;5.344;2023-11-22T04:39:51;3.95;;;1.70;;
70312;SDS011;57723;51.698;5.344;2023-11-22T04:42:17;4.18;;;2.10;;
70312;SDS011;57723;51.698;5.344;2023-11-22T04:44:43;6.13;;;1.97;;
70312;SDS011;57723;51.698;5.344;2023-11-22T04:47:08;4.57;;;1.52;;
70312;SDS011;57723;51.698;5.344;2023-11-22T04:49:33;4.90;;;1.80;;
70312;SDS011;57723;51.698;5.344;2023-11-22T04:51:59;2.80;;;1.60;;
70312;SDS011;57723;51.698;5.344;2023-11-22T04:54:24;2.90;;;1.63;;
70312;SDS011;57723;51.698;5.344;2023-11-22T04:56:49;2.93;;;1.50;;
70312;SDS011;57723;51.698;5.344;2023-11-22T04:59:15;3.97;;;1.67;;
70312;SDS011;57723;51.698;5.344;2023-11-22T05:01:40;2.60;;;1.60;;
70312;SDS011;57723;51.698;5.344;2023-11-22T05:04:06;2.93;;;1.60;;
70312;SDS011;57723;51.698;5.344;2023-11-22T05:06:33;3.28;;;1.58;;
70312;SDS011;57723;51.698;5.344;2023-11-22T05:08:58;3.67;;;1.90;;
70312;SDS011;57723;51.698;5.344;2023-11-22T05:11:23;9.00;;;1.88;;
70312;SDS011;57723;51.698;5.344;2023-11-22T05:13:49;3.50;;;1.73;;
70312;SDS011;57723;51.698;5.344;2023-11-22T05:16:15;2.60;;;1.58;;
70312;SDS011;57723;51.698;5.344;2023-11-22T05:18:40;11.05;;;1.73;;
70312;SDS011;57723;51.698;5.344;2023-11-22T05:21:12;2.80;;;1.67;;
70312;SDS011;57723;51.698;5.344;2023-11-22T05:23:40;3.20;;;1.52;;
70312;SDS011;57723;51.698;5.344;2023-11-22T05:26:05;4.97;;;1.77;;
70312;SDS011;57723;51.698;5.344;2023-11-22T05:28:37;3.15;;;1.60;;
70312;SDS011;57723;51.698;5.344;2023-11-22T05:31:03;3.42;;;1.90;;
70312;SDS011;57723;51.698;5.344;2023-11-22T05:33:28;4.87;;;1.90;;
70312;SDS011;57723;51.698;5.344;2023-11-22T05:35:53;4.03;;;1.67;;
70312;SDS011;57723;51.698;5.344;2023-11-22T05:38:22;6.18;;;2.15;;
70312;SDS011;57723;51.698;5.344;2023-11-22T05:40:47;5.47;;;1.80;;
70312;SDS011;57723;51.698;5.344;2023-11-22T05:43:13;3.57;;;1.60;;
70312;SDS011;57723;51.698;5.344;2023-11-22T05:45:41;3.03;;;1.73;;
70312;SDS011;57723;51.698;5.344;2023-11-22T05:48:07;8.15;;;1.60;;
70312;SDS011;57723;51.698;5.344;2023-11-22T05:50:33;3.83;;;1.58;;
70312;SDS011;57723;51.698;5.344;2023-11-22T05:52:58;2.90;;;1.57;;
70312;SDS011;57723;51.698;5.344;2023-11-22T05:55:25;8.10;;;1.83;;
70312;SDS011;57723;51.698;5.344;2023-11-22T05:57:50;2.50;;;1.40;;
70312;SDS011;57723;51.698;5.344;2023-11-22T06:00:15;6.27;;;1.80;;
70312;SDS011;57723;51.698;5.344;2023-11-22T06:02:41;2.83;;;1.60;;
70312;SDS011;57723;51.698;5.344;2023-11-22T06:05:06;3.80;;;1.80;;
70312;SDS011;57723;51.698;5.344;2023-11-22T06:07:32;3.35;;;1.77;;
70312;SDS011;57723;51.698;5.344;2023-11-22T06:09:57;4.60;;;1.80;;
70312;SDS011;57723;51.698;5.344;2023-11-22T06:12:23;4.73;;;2.27;;
70312;SDS011;57723;51.698;5.344;2023-11-22T06:14:48;4.28;;;2.80;;
70312;SDS011;57723;51.698;5.344;2023-11-22T06:17:14;5.37;;;3.10;;
70312;SDS011;57723;51.698;5.344;2023-11-22T06:19:39;7.87;;;3.97;;
70312;SDS011;57723;51.698;5.344;2023-11-22T06:22:06;8.00;;;4.10;;
70312;SDS011;57723;51.698;5.344;2023-11-22T06:24:32;11.07;;;4.10;;
70312;SDS011;57723;51.698;5.344;2023-11-22T06:27:01;7.43;;;4.40;;
70312;SDS011;57723;51.698;5.344;2023-11-22T06:29:26;5.22;;;4.50;;
70312;SDS011;57723;51.698;5.344;2023-11-22T06:31:54;6.30;;;4.07;;
70312;SDS011;57723;51.698;5.344;2023-11-22T06:34:19;8.23;;;4.63;;
70312;SDS011;57723;51.698;5.344;2023-11-22T06:36:45;5.87;;;4.07;;
70312;SDS011;57723;51.698;5.344;2023-11-22T06:39:10;8.80;;;4.80;;
70312;SDS011;57723;51.698;5.344;2023-11-22T06:41:41;6.75;;;3.92;;
70312;SDS011;57723;51.698;5.344;2023-11-22T06:44:06;7.53;;;2.10;;
70312;SDS011;57723;51.698;5.344;2023-11-22T06:46:32;8.07;;;1.80;;
70312;SDS011;57723;51.698;5.344;2023-11-22T06:48:57;11.57;;;1.92;;
70312;SDS011;57723;51.698;5.344;2023-11-22T06:51:23;5.80;;;2.05;;
70312;SDS011;57723;51.698;5.344;2023-11-22T06:53:49;4.27;;;2.00;;
70312;SDS011;57723;51.698;5.344;2023-11-22T06:56:14;6.73;;;2.30;;
70312;SDS011;57723;51.698;5.344;2023-11-22T06:58:39;3.85;;;1.90;;
70312;SDS011;57723;51.698;5.344;2023-11-22T07:01:05;6.45;;;2.30;;
70312;SDS011;57723;51.698;5.344;2023-11-22T07:03:31;4.75;;;2.20;;
70312;SDS011;57723;51.698;5.344;2023-11-22T07:05:56;5.80;;;2.38;;
70312;SDS011;57723;51.698;5.344;2023-11-22T07:08:22;5.38;;;2.17;;
70312;SDS011;57723;51.698;5.344;2023-11-22T07:10:47;5.80;;;2.43;;
70312;SDS011;57723;51.698;5.344;2023-11-22T07:13:13;8.50;;;2.40;;
70312;SDS011;57723;51.698;5.344;2023-11-22T07:15:38;8.63;;;2.60;;
70312;SDS011;57723;51.698;5.344;2023-11-22T07:18:07;6.35;;;2.22;;
70312;SDS011;57723;51.698;5.344;2023-11-22T07:20:32;7.97;;;2.33;;
70312;SDS011;57723;51.698;5.344;2023-11-22T07:22:58;6.03;;;2.50;;
70312;SDS011;57723;51.698;5.344;2023-11-22T07:25:25;6.03;;;2.50;;
70312;SDS011;57723;51.698;5.344;2023-11-22T07:27:51;8.07;;;2.28;;
70312;SDS011;57723;51.698;5.344;2023-11-22T07:30:18;7.63;;;2.45;;
70312;SDS011;57723;51.698;5.344;2023-11-22T07:32:54;14.80;;;2.60;;
70312;SDS011;57723;51.698;5.344;2023-11-22T07:35:20;9.77;;;3.00;;
70312;SDS011;57723;51.698;5.344;2023-11-22T07:37:46;7.47;;;2.63;;
70312;SDS011;57723;51.698;5.344;2023-11-22T07:40:15;6.88;;;2.53;;
70312;SDS011;57723;51.698;5.344;2023-11-22T07:42:41;10.02;;;2.78;;
70312;SDS011;57723;51.698;5.344;2023-11-22T07:45:09;5.97;;;2.58;;
70312;SDS011;57723;51.698;5.344;2023-11-22T07:47:36;6.28;;;2.63;;
70312;SDS011;57723;51.698;5.344;2023-11-22T07:50:05;5.55;;;2.15;;
70312;SDS011;57723;51.698;5.344;2023-11-22T07:52:32;6.93;;;2.50;;
70312;SDS011;57723;51.698;5.344;2023-11-22T07:54:57;8.87;;;2.87;;
70312;SDS011;57723;51.698;5.344;2023-11-22T07:57:22;6.43;;;2.60;;
70312;SDS011;57723;51.698;5.344;2023-11-22T07:59:48;6.00;;;2.30;;
70312;SDS011;57723;51.698;5.344;2023-11-22T08:02:13;6.00;;;2.43;;
70312;SDS011;57723;51.698;5.344;2023-11-22T08:04:38;7.50;;;2.70;;
70312;SDS011;57723;51.698;5.344;2023-11-22T08:07:05;6.55;;;2.53;;
70312;SDS011;57723;51.698;5.344;2023-11-22T08:09:30;6.30;;;2.73;;
70312;SDS011;57723;51.698;5.344;2023-11-22T08:11:59;6.13;;;2.60;;
70312;SDS011;57723;51.698;5.344;2023-11-22T08:14:26;5.50;;;2.42;;
70312;SDS011;57723;51.698;5.344;2023-11-22T08:16:53;7.10;;;2.47;;
70312;SDS011;57723;51.698;5.344;2023-11-22T08:19:18;8.07;;;2.43;;
70312;SDS011;57723;51.698;5.344;2023-11-22T08:21:47;5.77;;;2.40;;
70312;SDS011;57723;51.698;5.344;2023-11-22T08:24:13;5.63;;;2.10;;
70312;SDS011;57723;51.698;5.344;2023-11-22T08:26:38;7.53;;;2.57;;
70312;SDS011;57723;51.698;5.344;2023-11-22T08:29:04;6.93;;;2.30;;
70312;SDS011;57723;51.698;5.344;2023-11-22T08:31:29;6.32;;;2.72;;
70312;SDS011;57723;51.698;5.344;2023-11-22T08:33:55;7.63;;;2.70;;
70312;SDS011;57723;51.698;5.344;2023-11-22T08:36:20;7.17;;;3.00;;
70312;SDS011;57723;51.698;5.344;2023-11-22T08:38:46;7.63;;;2.87;;
70312;SDS011;57723;51.698;5.344;2023-11-22T08:41:11;6.00;;;2.95;;
70312;SDS011;57723;51.698;5.344;2023-11-22T08:43:38;6.70;;;3.13;;
70312;SDS011;57723;51.698;5.344;2023-11-22T08:46:03;6.10;;;2.70;;
70312;SDS011;57723;51.698;5.344;2023-11-22T08:48:33;5.80;;;2.50;;
70312;SDS011;57723;51.698;5.344;2023-11-22T08:50:58;7.07;;;2.35;;
70312;SDS011;57723;51.698;5.344;2023-11-22T08:53:24;5.33;;;2.47;;
70312;SDS011;57723;51.698;5.344;2023-11-22T08:55:49;6.80;;;2.57;;
70312;SDS011;57723;51.698;5.344;2023-11-22T08:58:15;6.40;;;2.30;;
70312;SDS011;57723;51.698;5.344;2023-11-22T09:00:40;5.40;;;2.77;;
70312;SDS011;57723;51.698;5.344;2023-11-22T09:03:10;7.82;;;3.00;;
70312;SDS011;57723;51.698;5.344;2023-11-22T09:05:41;5.07;;;2.70;;
70312;SDS011;57723;51.698;5.344;2023-11-22T09:08:07;6.03;;;2.47;;
70312;SDS011;57723;51.698;5.344;2023-11-22T09:10:38;6.63;;;2.60;;
70312;SDS011;57723;51.698;5.344;2023-11-22T09:13:04;4.90;;;2.53;;
70312;SDS011;57723;51.698;5.344;2023-11-22T09:15:30;7.13;;;2.67;;
70312;SDS011;57723;51.698;5.344;2023-11-22T09:17:57;7.00;;;2.70;;
70312;SDS011;57723;51.698;5.344;2023-11-22T09:20:23;5.82;;;2.53;;
70312;SDS011;57723;51.698;5.344;2023-11-22T09:22:49;6.22;;;2.47;;
70312;SDS011;57723;51.698;5.344;2023-11-22T09:25:18;5.60;;;2.55;;
70312;SDS011;57723;51.698;5.344;2023-11-22T09:27:47;8.43;;;2.90;;
70312;SDS011;57723;51.698;5.344;2023-11-22T09:30:16;6.50;;;2.88;;
70312;SDS011;57723;51.698;5.344;2023-11-22T09:32:57;5.43;;;2.67;;
70312;SDS011;57723;51.698;5.344;2023-11-22T09:35:23;6.47;;;2.63;;
70312;SDS011;57723;51.698;5.344;2023-11-22T09:37:48;7.07;;;2.77;;
70312;SDS011;57723;51.698;5.344;2023-11-22T09:40:16;6.75;;;2.80;;
70312;SDS011;57723;51.698;5.344;2023-11-22T09:42:43;4.95;;;2.55;;
70312;SDS011;57723;51.698;5.344;2023-11-22T09:45:08;7.53;;;2.70;;
70312;SDS011;57723;51.698;5.344;2023-11-22T09:47:34;7.43;;;2.63;;
70312;SDS011;57723;51.698;5.344;2023-11-22T09:50:01;9.10;;;3.10;;
70312;SDS011;57723;51.698;5.344;2023-11-22T09:52:27;4.85;;;2.60;;
70312;SDS011;57723;51.698;5.344;2023-11-22T09:54:53;7.43;;;3.08;;
70312;SDS011;57723;51.698;5.344;2023-11-22T09:57:19;6.15;;;2.70;;
70312;SDS011;57723;51.698;5.344;2023-11-22T09:59:44;7.18;;;2.75;;
70312;SDS011;57723;51.698;5.344;2023-11-22T10:02:10;7.53;;;2.40;;
70312;SDS011;57723;51.698;5.344;2023-11-22T10:04:35;7.17;;;2.63;;
70312;SDS011;57723;51.698;5.344;2023-11-22T10:07:00;5.50;;;2.53;;
70312;SDS011;57723;51.698;5.344;2023-11-22T10:09:26;5.53;;;2.83;;
70312;SDS011;57723;51.698;5.344;2023-11-22T10:11:57;7.47;;;2.78;;
70312;SDS011;57723;51.698;5.344;2023-11-22T10:14:23;6.45;;;2.72;;
70312;SDS011;57723;51.698;5.344;2023-11-22T10:17:02;6.57;;;2.72;;
70312;SDS011;57723;51.698;5.344;2023-11-22T10:19:28;5.90;;;2.80;;
70312;SDS011;57723;51.698;5.344;2023-11-22T10:22:02;6.18;;;2.72;;
70312;SDS011;57723;51.698;5.344;2023-11-22T10:24:29;5.88;;;2.80;;
70312;SDS011;57723;51.698;5.344;2023-11-22T10:26:55;5.43;;;2.70;;
70312;SDS011;57723;51.698;5.344;2023-11-22T10:29:24;6.18;;;2.50;;
70312;SDS011;57723;51.698;5.344;2023-11-22T10:31:50;7.38;;;2.90;;
70312;SDS011;57723;51.698;5.344;2023-11-22T10:34:18;7.15;;;2.60;;
70312;SDS011;57723;51.698;5.344;2023-11-22T10:36:43;4.85;;;2.58;;
70312;SDS011;57723;51.698;5.344;2023-11-22T10:39:09;4.37;;;2.40;;
70312;SDS011;57723;51.698;5.344;2023-11-22T10:41:41;5.70;;;2.90;;
70312;SDS011;57723;51.698;5.344;2023-11-22T10:44:06;5.47;;;2.83;;
70312;SDS011;57723;51.698;5.344;2023-11-22T10:46:36;4.75;;;2.50;;
70312;SDS011;57723;51.698;5.344;2023-11-22T10:49:04;6.00;;;2.90;;
70312;SDS011;57723;51.698;5.344;2023-11-22T10:51:30;4.73;;;2.80;;
70312;SDS011;57723;51.698;5.344;2023-11-22T10:53:56;6.78;;;2.97;;
70312;SDS011;57723;51.698;5.344;2023-11-22T10:56:23;7.15;;;3.35;;
70312;SDS011;57723;51.698;5.344;2023-11-22T10:58:49;4.23;;;2.70;;
70312;SDS011;57723;51.698;5.344;2023-11-22T11:01:15;5.00;;;2.70;;
70312;SDS011;57723;51.698;5.344;2023-11-22T11:03:42;5.22;;;2.83;;
70312;SDS011;57723;51.698;5.344;2023-11-22T11:06:13;6.88;;;2.65;;
70312;SDS011;57723;51.698;5.344;2023-11-22T11:08:40;4.72;;;2.40;;
70312;SDS011;57723;51.698;5.344;2023-11-22T11:11:08;5.53;;;2.60;;
70312;SDS011;57723;51.698;5.344;2023-11-22T11:13:34;5.00;;;2.60;;
70312;SDS011;57723;51.698;5.344;2023-11-22T11:15:59;5.63;;;2.80;;
70312;SDS011;57723;51.698;5.344;2023-11-22T11:18:25;5.18;;;2.90;;
70312;SDS011;57723;51.698;5.344;2023-11-22T11:20:56;5.47;;;2.60;;
70312;SDS011;57723;51.698;5.344;2023-11-22T11:23:27;4.25;;;2.42;;
70312;SDS011;57723;51.698;5.344;2023-11-22T11:25:56;5.03;;;2.78;;
70312;SDS011;57723;51.698;5.344;2023-11-22T11:28:25;7.07;;;3.13;;
70312;SDS011;57723;51.698;5.344;2023-11-22T11:30:51;6.38;;;2.80;;
70312;SDS011;57723;51.698;5.344;2023-11-22T11:33:32;5.68;;;3.00;;
70312;SDS011;57723;51.698;5.344;2023-11-22T11:35:57;7.47;;;3.05;;
70312;SDS011;57723;51.698;5.344;2023-11-22T11:38:26;6.37;;;3.00;;
70312;SDS011;57723;51.698;5.344;2023-11-22T11:40:55;6.40;;;3.20;;
70312;SDS011;57723;51.698;5.344;2023-11-22T11:43:38;6.05;;;3.03;;
70312;SDS011;57723;51.698;5.344;2023-11-22T11:46:06;6.07;;;2.72;;
70312;SDS011;57723;51.698;5.344;2023-11-22T11:48:35;6.30;;;3.28;;
70312;SDS011;57723;51.698;5.344;2023-11-22T11:51:00;6.20;;;3.00;;
70312;SDS011;57723;51.698;5.344;2023-11-22T11:53:26;5.40;;;2.57;;
70312;SDS011;57723;51.698;5.344;2023-11-22T11:55:54;6.43;;;3.03;;
70312;SDS011;57723;51.698;5.344;2023-11-22T11:58:25;6.03;;;2.90;;
70312;SDS011;57723;51.698;5.344;2023-11-22T12:00:51;5.40;;;3.10;;
70312;SDS011;57723;51.698;5.344;2023-11-22T12:03:17;6.32;;;3.22;;
70312;SDS011;57723;51.698;5.344;2023-11-22T12:05:46;8.90;;;3.92;;
70312;SDS011;57723;51.698;5.344;2023-11-22T12:08:13;6.35;;;3.30;;
70312;SDS011;57723;51.698;5.344;2023-11-22T12:10:41;9.37;;;3.90;;
70312;SDS011;57723;51.698;5.344;2023-11-22T12:13:07;11.85;;;3.85;;
70312;SDS011;57723;51.698;5.344;2023-11-22T12:15:33;7.60;;;3.78;;
70312;SDS011;57723;51.698;5.344;2023-11-22T12:17:59;9.30;;;3.90;;
70312;SDS011;57723;51.698;5.344;2023-11-22T12:20:26;8.93;;;4.43;;
70312;SDS011;57723;51.698;5.344;2023-11-22T12:22:56;7.73;;;3.70;;
70312;SDS011;57723;51.698;5.344;2023-11-22T12:25:26;10.98;;;4.28;;
70312;SDS011;57723;51.698;5.344;2023-11-22T12:27:53;10.40;;;4.40;;
70312;SDS011;57723;51.698;5.344;2023-11-22T12:32:53;14.13;;;4.82;;
70312;SDS011;57723;51.698;5.344;2023-11-22T12:35:19;12.47;;;5.37;;
70312;SDS011;57723;51.698;5.344;2023-11-22T12:37:44;11.37;;;5.43;;
70312;SDS011;57723;51.698;5.344;2023-11-22T12:40:13;21.45;;;6.60;;
70312;SDS011;57723;51.698;5.344;2023-11-22T12:42:48;10.88;;;5.28;;
70312;SDS011;57723;51.698;5.344;2023-11-22T12:45:18;17.25;;;5.53;;
70312;SDS011;57723;51.698;5.344;2023-11-22T12:47:44;14.67;;;5.80;;
70312;SDS011;57723;51.698;5.344;2023-11-22T12:53:11;18.52;;;6.13;;
70312;SDS011;57723;51.698;5.344;2023-11-22T12:55:37;14.23;;;5.70;;
70312;SDS011;57723;51.698;5.344;2023-11-22T12:58:03;12.13;;;6.10;;
70312;SDS011;57723;51.698;5.344;2023-11-22T13:00:28;16.67;;;6.30;;
70312;SDS011;57723;51.698;5.344;2023-11-22T13:02:57;12.13;;;5.40;;
70312;SDS011;57723;51.698;5.344;2023-11-22T13:05:23;15.43;;;6.20;;
70312;SDS011;57723;51.698;5.344;2023-11-22T13:07:48;12.13;;;6.10;;
70312;SDS011;57723;51.698;5.344;2023-11-22T13:10:14;14.27;;;6.00;;
70312;SDS011;57723;51.698;5.344;2023-11-22T13:12:41;13.82;;;5.68;;
70312;SDS011;57723;51.698;5.344;2023-11-22T13:15:08;14.50;;;5.70;;
70312;SDS011;57723;51.698;5.344;2023-11-22T13:17:34;13.33;;;6.30;;
70312;SDS011;57723;51.698;5.344;2023-11-22T13:19:59;15.13;;;6.15;;
70312;SDS011;57723;51.698;5.344;2023-11-22T13:22:25;13.77;;;6.60;;
70312;SDS011;57723;51.698;5.344;2023-11-22T13:24:51;12.20;;;5.88;;
70312;SDS011;57723;51.698;5.344;2023-11-22T13:27:16;15.67;;;6.50;;
70312;SDS011;57723;51.698;5.344;2023-11-22T13:29:41;17.23;;;6.83;;
70312;SDS011;57723;51.698;5.344;2023-11-22T13:32:09;13.70;;;5.70;;
70312;SDS011;57723;51.698;5.344;2023-11-22T13:34:34;16.70;;;6.70;;
70312;SDS011;57723;51.698;5.344;2023-11-22T13:37:00;15.67;;;6.87;;
70312;SDS011;57723;51.698;5.344;2023-11-22T13:39:25;14.50;;;6.07;;
70312;SDS011;57723;51.698;5.344;2023-11-22T13:41:51;16.48;;;6.75;;
70312;SDS011;57723;51.698;5.344;2023-11-22T13:44:16;16.97;;;6.47;;
70312;SDS011;57723;51.698;5.344;2023-11-22T13:46:43;15.00;;;6.95;;
70312;SDS011;57723;51.698;5.344;2023-11-22T13:49:08;17.17;;;6.90;;
70312;SDS011;57723;51.698;5.344;2023-11-22T13:51:34;14.93;;;6.90;;
70312;SDS011;57723;51.698;5.344;2023-11-22T13:54:00;14.15;;;6.72;;
70312;SDS011;57723;51.698;5.344;2023-11-22T13:56:25;14.40;;;6.90;;
70312;SDS011;57723;51.698;5.344;2023-11-22T13:58:51;14.35;;;6.40;;
70312;SDS011;57723;51.698;5.344;2023-11-22T14:01:17;16.17;;;6.63;;
70312;SDS011;57723;51.698;5.344;2023-11-22T14:03:46;18.83;;;6.95;;
70312;SDS011;57723;51.698;5.344;2023-11-22T14:06:12;14.80;;;6.63;;
70312;SDS011;57723;51.698;5.344;2023-11-22T14:08:41;16.33;;;7.13;;
70312;SDS011;57723;51.698;5.344;2023-11-22T14:11:09;16.03;;;7.07;;
70312;SDS011;57723;51.698;5.344;2023-11-22T14:13:35;15.20;;;6.70;;
70312;SDS011;57723;51.698;5.344;2023-11-22T14:16:00;15.07;;;6.53;;
70312;SDS011;57723;51.698;5.344;2023-11-22T14:18:26;15.45;;;6.65;;
70312;SDS011;57723;51.698;5.344;2023-11-22T14:20:51;16.60;;;6.93;;
70312;SDS011;57723;51.698;5.344;2023-11-22T14:23:16;13.23;;;6.47;;
70312;SDS011;57723;51.698;5.344;2023-11-22T14:25:42;17.20;;;7.40;;
70312;SDS011;57723;51.698;5.344;2023-11-22T14:28:07;15.37;;;6.93;;
70312;SDS011;57723;51.698;5.344;2023-11-22T14:30:33;15.55;;;7.10;;
70312;SDS011;57723;51.698;5.344;2023-11-22T14:33:01;19.13;;;7.67;;
70312;SDS011;57723;51.698;5.344;2023-11-22T14:35:31;15.75;;;7.05;;
70312;SDS011;57723;51.698;5.344;2023-11-22T14:37:59;17.83;;;7.10;;
70312;SDS011;57723;51.698;5.344;2023-11-22T14:40:25;14.45;;;6.80;;
70312;SDS011;57723;51.698;5.344;2023-11-22T14:42:51;13.40;;;7.10;;
70312;SDS011;57723;51.698;5.344;2023-11-22T14:45:17;14.48;;;6.45;;
70312;SDS011;57723;51.698;5.344;2023-11-22T14:47:45;13.88;;;6.78;;